Kotoka International Airport

DGAA · Greater Accra, Ghana

METAR anciennes DGAA · Aéroport international de Kotoka

Tu vois ci-dessous les METAR des derniers jours. Sélectionne une année pour parcourir les METAR plus anciens, à partir de l'année 2007.

29 novembre 2022

Temps Code Temps Temp. Vue Base cloud Vent METAR/SPECI
00:00
V
25 °C 10 km+ - 280° 280° 4 kt METAR DGAA 290000Z 28004KT CAVOK 25/21 Q1008 NOSIG

28 novembre 2022

Temps Code Temps Temp. Vue Base cloud Vent METAR/SPECI
23:00
V
25 °C 10 km+ - 280° 280° 6 kt METAR DGAA 282300Z 28006KT CAVOK 25/21 Q1009 NOSIG
21:00
V
26 °C 10 km+ - 280° 280° 6 kt METAR DGAA 282100Z 28006KT CAVOK 26/21 Q1009 NOSIG
19:00
V
28 °C 10 km+ - 210° 210° 8 kt METAR DGAA 281900Z 21008KT CAVOK 28/23 Q1008 NOSIG
18:00
V
28 °C 10 km+ - 240° 240° 6 kt METAR DGAA 281800Z 24006KT 9999 FEW030CB 28/23 Q1007 NOSIG
17:00
V
29 °C 10 km+ - 220° 220° 13 kt METAR DGAA 281700Z 22013KT 9999 FEW030CB 29/25 Q1006 NOSIG
16:00
V
29 °C 10 km+ - 200° 200° 14 kt METAR DGAA 281600Z 20014KT 9999 FEW030CB 29/24 Q1006 NOSIG
15:00
V
30 °C 10 km+ - 190° 190° 14 kt METAR DGAA 281500Z 19014KT 9999 FEW030CB 30/24 Q1005 NOSIG
14:00
V
30 °C 10 km+ - 200° 200° 14 kt METAR DGAA 281400Z 20014KT 9999 FEW030 30/24 Q1006 NOSIG
13:00
V
31 °C 10 km+ - 180° 180° 10 kt METAR DGAA 281300Z 18010KT 160V220 9999 SCT029 31/24 Q1007 NOSIG
12:00
M
30 °C 10 km+ 2.900 ft 200° 200° 9 kt METAR DGAA 281200Z 20009KT 160V240 9999 BKN029 30/24 Q1008 NOSIG
11:00
V
29 °C 10 km+ - 240° 240° 8 kt METAR DGAA 281100Z 24008KT 9999 FEW022 29/24 Q1009 NOSIG
10:00
V
29 °C 10 km+ - 260° 260° 9 kt METAR DGAA 281000Z 26009KT 9999 SCT018 29/24 Q1009 NOSIG
08:00
V
27 °C 10 km+ - 250° 250° 8 kt METAR DGAA 280800Z 25008KT CAVOK 27/24 Q1009 NOSIG
07:00
V
26 °C 10 km+ - 270° 270° 8 kt METAR DGAA 280700Z 27008KT CAVOK 26/24 Q1008 NOSIG
06:00
V
25 °C 10 km+ - 270° 270° 7 kt METAR DGAA 280600Z 27007KT CAVOK 25/24 Q1008 NOSIG
05:00
V
25 °C 10 km+ - 270° 270° 6 kt METAR DGAA 280500Z 27006KT CAVOK 25/24 Q1008 NOSIG
04:00
V
25 °C 10 km+ - 270° 270° 8 kt METAR DGAA 280400Z 27008KT CAVOK 25/23 Q1008 NOSIG
03:00
V
25 °C 10 km+ - 270° 270° 6 kt METAR DGAA 280300Z 27006KT CAVOK 25/23 Q1008 NOSIG
02:00
V
25 °C 10 km+ - 270° 270° 7 kt METAR DGAA 280200Z 27007KT 9999 FEW021 25/23 Q1008 NOSIG
01:00
V
26 °C 10 km+ - 270° 270° 7 kt METAR DGAA 280100Z 27007KT 9999 FEW015 26/23 Q1009 NOSIG
00:00
V
26 °C 10 km+ - 280° 280° 6 kt METAR DGAA 280000Z 28006KT 9999 26/24 Q1009 NOSIG

27 novembre 2022

Temps Code Temps Temp. Vue Base cloud Vent METAR/SPECI
23:00
V
27 °C 10 km+ - 250° 250° 5 kt METAR DGAA 272300Z 25005KT 200V290 9999 FEW014 27/24 Q1009 NOSIG
22:00
M
27 °C 10 km+ 1.500 ft 250° 250° 6 kt METAR DGAA 272200Z 25006KT 9999 BKN015 27/24 Q1009 NOSIG
21:00
V
27 °C 10 km+ - 200° 200° 7 kt METAR DGAA 272100Z 20007KT CAVOK 27/24 Q1009 NOSIG
19:00
V
28 °C 10 km+ - 220° 220° 12 kt METAR DGAA 271900Z 22012KT 9999 SCT017 SCT037 28/25 Q1008 NOSIG
18:00
V
28 °C 10 km+ - 200° 200° 11 kt METAR DGAA 271800Z 20011KT 9999 SCT017 FEW030CB 28/25 Q1007 NOSIG
17:00
V
28 °C 10 km+ - 200° 200° 15 kt METAR DGAA 271700Z 20015KT 9999 FEW016 FEW030CB 28/25 Q1007 NOSIG
16:00
V
28 °C 10 km+ - 190° 190° 12 kt METAR DGAA 271600Z 19012KT 9999 FEW018 FEW030CB 28/25 Q1006 NOSIG
15:00
V
28 °C 10 km+ - 200° 200° 16 kt METAR DGAA 271500Z 20016KT 9999 FEW030CB 28/25 Q1006 NOSIG
14:00
V
30 °C 10 km+ - 190° 190° 13 kt METAR DGAA 271400Z 19013KT CAVOK 30/24 Q1007 NOSIG
13:00
V
30 °C 10 km+ - 180° 180° 11 kt METAR DGAA 271300Z 18011KT CAVOK 30/24 Q1007 NOSIG
11:00
V
30 °C 10 km+ - 250° 250° 6 kt METAR DGAA 271100Z 25006KT 210V280 9999 FEW030 SCT038 30/23 Q1009 NOSIG
10:00
V
30 °C 10 km+ 3.100 ft 260° 260° 7 kt METAR DGAA 271000Z 26007KT 230V290 9999 SCT023 BKN031 BKN044 30/24 Q1010 NOSIG
09:00
V
29 °C 10 km+ - 270° 270° 6 kt METAR DGAA 270900Z 27006KT 240V300 9999 FEW015 29/25 Q1011 NOSIG
08:00
V
27 °C 8 km - 270° 270° 7 kt METAR DGAA 270800Z 27007KT 8000 NSC 27/25 Q1011 NOSIG
07:00
V
25 °C 8 km - 280° 280° 6 kt METAR DGAA 270700Z 28006KT 8000 NSC 25/24 Q1010 NOSIG
06:00
V
25 °C 8 km - 280° 280° 6 kt METAR DGAA 270600Z 28006KT 8000 FEW010 25/24 Q1010 NOSIG
05:00
V
25 °C 10 km+ - 270° 270° 6 kt METAR DGAA 270500Z 27006KT 9999 FEW017 25/24 Q1010 NOSIG
04:00
V
25 °C 10 km+ - 270° 270° 7 kt METAR DGAA 270400Z 27007KT 9999 FEW015 25/24 Q1009 NOSIG
03:00
V
25 °C 10 km+ - 270° 270° 7 kt METAR DGAA 270300Z 27007KT 9999 FEW015 25/23 Q1009 NOSIG
02:00
V
25 °C 10 km+ - 270° 270° 7 kt METAR DGAA 270200Z 27007KT 240V300 9999 FEW015 25/23 Q1009 NOSIG
01:00
V
26 °C 10 km+ - 260° 260° 6 kt METAR DGAA 270100Z 26006KT 220V280 9999 FEW015 26/23 Q1010 NOSIG
00:00
V
26 °C 10 km+ - 270° 270° 5 kt METAR DGAA 270000Z 27005KT 9999 SCT016 26/23 Q1011 NOSIG

26 novembre 2022

Temps Code Temps Temp. Vue Base cloud Vent METAR/SPECI
23:00
V
28 °C 10 km+ - 230° 230° 8 kt METAR DGAA 262300Z 23008KT 9999 SCT015 28/25 Q1011 NOSIG
22:00
V
28 °C 10 km+ - 210° 210° 10 kt METAR DGAA 262200Z 21010KT 9999 FEW018 28/25 Q1011 NOSIG
21:00
V
28 °C 10 km+ - 220° 220° 9 kt METAR DGAA 262100Z 22009KT 9999 FEW017 28/25 Q1011 NOSIG
20:00
V
28 °C 10 km+ - 200° 200° 12 kt METAR DGAA 262000Z 20012KT 9999 FEW016 28/25 Q1011 NOSIG
19:00
V
28 °C 10 km+ - 210° 210° 12 kt METAR DGAA 261900Z 21012KT 9999 FEW017 FEW030CB 28/25 Q1010 NOSIG
18:00
V
28 °C 10 km+ - 200° 200° 13 kt METAR DGAA 261800Z 20013KT 9999 FEW017 FEW030CB 28/25 Q1010 NOSIG
17:00
V
29 °C 10 km+ - 200° 200° 12 kt METAR DGAA 261700Z 20012KT 9999 FEW019 29/25 Q1009 NOSIG
16:00
V
29 °C 10 km+ - 190° 190° 12 kt METAR DGAA 261600Z 19012KT CAVOK 29/25 Q1009 NOSIG
15:00
V
30 °C 10 km+ - 190° 190° 15 kt METAR DGAA 261500Z 19015KT 9999 FEW021 30/24 Q1009 NOSIG
14:00
V
30 °C 10 km+ - 190° 190° 13 kt METAR DGAA 261400Z 19013KT 9999 FEW024 30/25 Q1009 NOSIG
13:00
M
30 °C 10 km+ 2.900 ft 180° 180° 12 kt METAR DGAA 261300Z 18012KT 9999 FEW024 BKN029 30/25 Q1010 NOSIG
12:00
V
30 °C 10 km+ - 180° 180° 10 kt METAR DGAA 261200Z 18010KT 9999 FEW029 30/25 Q1010 NOSIG
11:00
V
31 °C 10 km+ - Var Var 7 kt METAR DGAA 261100Z VRB07KT 9999 SCT028 31/24 Q1011 NOSIG
10:00
M
29 °C 10 km+ 2.800 ft 250° 250° 8 kt METAR DGAA 261000Z 25008KT 9999 FEW019 SCT023 BKN028 29/24 Q1011 NOSIG

Nous et des tiers suivons ton comportement Internet sur notre site Web à l'aide de cookies. Si tu continues, nous supposons que tu es d'accord avec notre Politique en matière de cookies.